createdAt,value
2022-10-07T00:02:07.454Z,12.61
2022-10-07T00:04:37.779Z,12.58
2022-10-07T00:07:06.539Z,12.60
2022-10-07T00:09:35.222Z,12.62
2022-10-07T00:12:04.071Z,12.63
2022-10-07T00:14:32.720Z,12.60
2022-10-07T00:17:01.612Z,12.61
2022-10-07T00:19:30.389Z,12.61
2022-10-07T00:22:00.505Z,12.59
2022-10-07T00:24:29.301Z,12.55
2022-10-07T00:26:58.009Z,12.55
2022-10-07T00:29:26.759Z,12.57
2022-10-07T00:31:57.384Z,12.56
2022-10-07T00:34:27.041Z,12.53
2022-10-07T00:36:55.890Z,12.58
2022-10-07T00:39:25.865Z,12.60
2022-10-07T00:41:54.634Z,12.58
2022-10-07T00:44:41.977Z,12.55
2022-10-07T00:47:20.353Z,12.47
2022-10-07T00:49:55.347Z,12.40
2022-10-07T00:52:28.057Z,12.36
2022-10-07T00:55:00.556Z,12.45
2022-10-07T00:57:32.209Z,12.47
2022-10-07T01:00:02.185Z,12.36
2022-10-07T01:02:31.547Z,12.41
2022-10-07T01:05:04.374Z,12.41
2022-10-07T01:07:34.246Z,12.36
2022-10-07T01:10:06.003Z,12.35
2022-10-07T01:12:46.266Z,12.30
2022-10-07T01:15:25.846Z,12.27
2022-10-07T01:18:01.433Z,12.25
2022-10-07T01:20:39.600Z,12.19
2022-10-07T01:23:38.116Z,12.09
2022-10-07T01:26:37.256Z,12.01
2022-10-07T01:29:12.424Z,12.03
2022-10-07T01:31:47.375Z,12.00
2022-10-07T01:34:17.574Z,11.99
2022-10-07T01:36:52.337Z,12.06
2022-10-07T01:39:27.543Z,12.02
2022-10-07T01:41:59.124Z,11.94
2022-10-07T01:44:31.048Z,11.90
2022-10-07T01:47:00.600Z,11.87
2022-10-07T01:49:29.437Z,11.81
2022-10-07T01:52:33.505Z,11.76
2022-10-07T01:55:21.307Z,11.77
2022-10-07T01:58:01.042Z,11.84
2022-10-07T02:00:31.427Z,11.88
2022-10-07T02:03:30.293Z,11.89
2022-10-07T02:06:07.810Z,11.85
2022-10-07T02:08:43.608Z,11.77
2022-10-07T02:11:16.575Z,11.78
2022-10-07T02:13:58.726Z,11.73
2022-10-07T02:16:35.844Z,11.61
2022-10-07T02:19:11.236Z,11.57
2022-10-07T02:21:42.444Z,11.54
2022-10-07T02:24:13.576Z,11.51
2022-10-07T02:26:45.280Z,11.53
2022-10-07T02:29:21.266Z,11.45
2022-10-07T02:31:54.038Z,11.43
2022-10-07T02:34:26.616Z,11.37
2022-10-07T02:37:01.147Z,11.31
2022-10-07T02:39:31.417Z,11.23
2022-10-07T02:42:06.017Z,11.23
2022-10-07T02:44:44.282Z,11.25
2022-10-07T02:47:19.037Z,11.23
2022-10-07T02:49:54.049Z,11.26
2022-10-07T02:52:25.028Z,11.20
2022-10-07T02:54:59.758Z,11.19
2022-10-07T02:57:33.365Z,11.15
2022-10-07T03:00:10.062Z,11.07
2022-10-07T03:02:51.740Z,11.01
2022-10-07T03:05:22.016Z,11.02
2022-10-07T03:07:57.093Z,11.08
2022-10-07T03:10:29.258Z,11.11
2022-10-07T03:12:58.776Z,11.12
2022-10-07T03:15:29.026Z,11.14
2022-10-07T03:17:58.756Z,11.12
2022-10-07T03:20:30.386Z,11.12
2022-10-07T03:22:59.598Z,11.12
2022-10-07T03:25:29.145Z,11.07
2022-10-07T03:27:57.958Z,10.97
2022-10-07T03:30:26.527Z,10.91
2022-10-07T03:32:57.607Z,10.92
2022-10-07T03:35:26.664Z,10.87
2022-10-07T03:37:55.415Z,10.86
2022-10-07T03:40:24.177Z,10.84
2022-10-07T03:42:53.476Z,10.81
2022-10-07T03:45:22.269Z,10.75
2022-10-07T03:47:50.827Z,10.75
2022-10-07T03:50:21.045Z,10.80
2022-10-07T03:52:49.798Z,10.76
2022-10-07T03:55:18.887Z,10.72
2022-10-07T03:57:59.139Z,10.68
2022-10-07T04:00:30.057Z,10.59
2022-10-07T04:03:00.195Z,10.44
2022-10-07T04:05:30.388Z,10.40
2022-10-07T04:07:59.098Z,10.36
2022-10-07T04:10:28.576Z,10.25
2022-10-07T04:12:57.487Z,10.19
2022-10-07T04:15:26.098Z,10.13
2022-10-07T04:17:58.833Z,10.19
2022-10-07T04:20:30.236Z,10.19
2022-10-07T04:22:59.235Z,10.18
2022-10-07T04:25:37.548Z,10.12
2022-10-07T04:28:17.522Z,10.15
2022-10-07T04:30:51.583Z,10.17
2022-10-07T04:33:25.845Z,10.19
2022-10-07T04:35:58.487Z,10.20
2022-10-07T04:38:28.550Z,10.20
2022-10-07T04:41:05.678Z,10.26
2022-10-07T04:43:36.248Z,10.28
2022-10-07T04:46:14.450Z,10.31
2022-10-07T04:48:54.058Z,10.40
2022-10-07T04:51:28.460Z,10.43
2022-10-07T04:54:01.137Z,10.36
2022-10-07T04:56:55.858Z,10.35
2022-10-07T04:59:29.938Z,10.36
2022-10-07T05:02:00.142Z,10.34
2022-10-07T05:04:30.439Z,10.26
2022-10-07T05:07:01.818Z,10.24
2022-10-07T05:09:32.408Z,10.21
2022-10-07T05:12:02.127Z,10.17
2022-10-07T05:14:33.150Z,10.10
2022-10-07T05:17:04.425Z,10.05
2022-10-07T05:19:36.371Z,10.02
2022-10-07T05:22:08.100Z,10.07
2022-10-07T05:24:37.641Z,10.13
2022-10-07T05:27:06.289Z,10.14
2022-10-07T05:29:35.294Z,10.18
2022-10-07T05:32:05.253Z,10.24
2022-10-07T05:34:35.049Z,10.30
2022-10-07T05:37:03.819Z,10.33
2022-10-07T05:39:35.026Z,10.35
2022-10-07T05:42:14.057Z,10.41
2022-10-07T05:44:53.097Z,10.51
2022-10-07T05:47:22.420Z,10.66
2022-10-07T05:49:55.198Z,10.78
2022-10-07T05:52:24.178Z,10.88
2022-10-07T05:54:55.399Z,10.99
2022-10-07T05:57:24.776Z,11.11
2022-10-07T05:59:53.425Z,11.24
2022-10-07T06:02:23.721Z,11.35
2022-10-07T06:04:52.772Z,11.45
2022-10-07T06:07:29.104Z,11.59
2022-10-07T06:10:11.259Z,11.72
2022-10-07T06:12:51.371Z,11.79
2022-10-07T06:15:20.019Z,11.87
2022-10-07T06:17:49.959Z,12.00
2022-10-07T06:20:21.129Z,12.19
2022-10-07T06:22:54.220Z,12.37
2022-10-07T06:25:25.083Z,12.43
2022-10-07T06:27:58.357Z,12.49
2022-10-07T06:30:29.651Z,12.56
2022-10-07T06:33:01.219Z,12.65
2022-10-07T06:35:29.950Z,12.72
2022-10-07T06:37:59.485Z,12.80
2022-10-07T06:40:30.199Z,12.92
2022-10-07T06:42:59.437Z,13.05
2022-10-07T06:45:37.382Z,13.18
2022-10-07T06:48:06.138Z,13.31
2022-10-07T06:50:34.928Z,13.41
2022-10-07T06:53:03.860Z,13.53
2022-10-07T06:55:38.125Z,13.64
2022-10-07T06:58:11.603Z,13.74
2022-10-07T07:00:42.351Z,13.87
2022-10-07T07:03:12.896Z,13.99
2022-10-07T07:05:45.433Z,14.09
2022-10-07T07:08:19.417Z,14.15
2022-10-07T07:10:50.355Z,14.17
2022-10-07T07:13:20.050Z,14.26
2022-10-07T07:15:56.429Z,14.36
2022-10-07T07:18:26.929Z,14.49
2022-10-07T07:20:55.407Z,14.55
2022-10-07T07:23:26.695Z,14.64
2022-10-07T07:25:56.868Z,14.70
2022-10-07T07:28:25.496Z,14.82
2022-10-07T07:30:54.264Z,14.95
2022-10-07T07:33:23.019Z,15.00
2022-10-07T07:35:51.726Z,15.08
2022-10-07T07:38:24.798Z,15.18
2022-10-07T07:40:57.420Z,15.23
2022-10-07T07:43:26.648Z,15.34
2022-10-07T07:45:55.577Z,15.44
2022-10-07T07:48:24.424Z,15.57
2022-10-07T07:50:53.090Z,15.67
2022-10-07T07:53:23.211Z,15.76
2022-10-07T07:55:57.999Z,15.87
2022-10-07T07:58:30.295Z,15.96
2022-10-07T08:01:01.307Z,16.09
2022-10-07T08:03:31.157Z,16.14
2022-10-07T08:06:03.310Z,16.28
2022-10-07T08:08:33.643Z,16.38
2022-10-07T08:11:09.933Z,16.47
2022-10-07T08:13:41.501Z,16.50
2022-10-07T08:16:14.788Z,16.62
2022-10-07T08:18:47.298Z,16.70
2022-10-07T08:21:18.965Z,16.77
2022-10-07T08:23:54.617Z,16.84
2022-10-07T08:26:24.875Z,16.91
2022-10-07T08:28:53.664Z,16.99
2022-10-07T08:31:23.328Z,17.09
2022-10-07T08:33:52.075Z,17.22
2022-10-07T08:36:22.975Z,17.28
2022-10-07T08:38:52.001Z,17.37
2022-10-07T08:41:47.650Z,17.50
2022-10-07T08:44:22.905Z,17.58
2022-10-07T08:47:02.501Z,17.71
2022-10-07T08:49:37.758Z,17.85
2022-10-07T08:52:20.842Z,17.99
2022-10-07T08:54:49.726Z,18.05
2022-10-07T08:57:31.714Z,18.25
2022-10-07T09:00:05.790Z,18.36
2022-10-07T09:02:44.342Z,18.49
2022-10-07T09:05:21.466Z,18.63
2022-10-07T09:07:55.313Z,18.79
2022-10-07T09:10:34.564Z,18.88
2022-10-07T09:13:12.877Z,18.95
2022-10-07T09:16:02.604Z,19.08
2022-10-07T09:18:36.055Z,19.28
2022-10-07T09:21:08.761Z,19.30
2022-10-07T09:23:37.489Z,19.44
2022-10-07T09:26:10.771Z,19.49
2022-10-07T09:28:41.518Z,19.56
2022-10-07T09:31:16.356Z,19.68
2022-10-07T09:33:49.724Z,19.87
2022-10-07T09:36:20.286Z,19.90
2022-10-07T09:38:52.736Z,19.90
2022-10-07T09:41:29.046Z,19.90
2022-10-07T09:44:08.344Z,20.06
2022-10-07T09:46:46.952Z,20.21
2022-10-07T09:49:39.839Z,20.46
2022-10-07T09:52:17.907Z,20.65
2022-10-07T09:54:48.523Z,20.65
2022-10-07T09:57:29.064Z,20.71
2022-10-07T10:00:19.342Z,20.78
2022-10-07T10:02:52.364Z,20.83
2022-10-07T10:05:28.769Z,20.97
2022-10-07T10:08:09.697Z,20.97
2022-10-07T10:10:38.697Z,21.02
2022-10-07T10:13:08.440Z,21.08
2022-10-07T10:15:43.792Z,21.08
2022-10-07T10:18:36.251Z,21.13
2022-10-07T10:21:17.539Z,21.20
2022-10-07T10:23:48.320Z,21.34
2022-10-07T10:26:37.883Z,21.46
2022-10-07T10:29:18.300Z,21.45
2022-10-07T10:32:06.369Z,21.54
2022-10-07T10:34:47.171Z,21.30
2022-10-07T10:37:20.601Z,21.65
2022-10-07T10:40:04.278Z,21.67
2022-10-07T10:42:46.240Z,21.78
2022-10-07T10:45:27.872Z,21.90
2022-10-07T10:48:16.071Z,22.04
2022-10-07T10:50:55.018Z,22.13
2022-10-07T10:53:37.468Z,22.20
2022-10-07T10:56:29.851Z,22.27
2022-10-07T10:59:19.438Z,22.27
2022-10-07T11:01:55.623Z,22.31
2022-10-07T11:04:36.113Z,22.27
2022-10-07T11:07:09.552Z,22.35
2022-10-07T11:09:42.459Z,22.44
2022-10-07T11:12:22.592Z,22.51
2022-10-07T11:14:57.927Z,22.34
2022-10-07T11:17:32.341Z,22.40
2022-10-07T11:20:15.460Z,22.61
2022-10-07T11:22:52.913Z,22.75
2022-10-07T11:25:30.149Z,22.68
2022-10-07T11:28:08.816Z,22.74
2022-10-07T11:30:49.773Z,22.76
2022-10-07T11:33:24.431Z,22.76
2022-10-07T11:35:59.211Z,22.72
2022-10-07T11:38:34.064Z,22.70
2022-10-07T11:41:06.230Z,22.76
2022-10-07T11:43:42.214Z,22.97
2022-10-07T11:46:17.528Z,23.07
2022-10-07T11:48:50.229Z,22.92
2022-10-07T11:51:26.083Z,22.89
2022-10-07T11:53:59.965Z,22.96
2022-10-07T11:56:29.860Z,22.97
2022-10-07T11:59:02.404Z,23.12
2022-10-07T12:01:53.756Z,23.22
2022-10-07T12:04:37.353Z,23.21
2022-10-07T12:07:27.743Z,23.12
2022-10-07T12:10:20.638Z,23.11
2022-10-07T12:12:52.443Z,23.03
2022-10-07T12:15:31.029Z,23.06
2022-10-07T12:18:25.654Z,23.04
2022-10-07T12:21:06.282Z,23.17
2022-10-07T12:23:49.045Z,23.32
2022-10-07T12:26:45.437Z,23.18
2022-10-07T12:29:40.412Z,23.11
2022-10-07T12:32:35.302Z,23.08
2022-10-07T12:35:29.675Z,23.18
2022-10-07T12:38:04.946Z,23.22
2022-10-07T12:40:37.185Z,23.23
2022-10-07T12:43:18.335Z,23.16
2022-10-07T12:45:47.918Z,23.23
2022-10-07T12:48:21.846Z,23.29
2022-10-07T12:50:54.279Z,23.32
2022-10-07T12:53:28.163Z,23.32
2022-10-07T12:55:57.873Z,23.36
2022-10-07T12:59:05.634Z,23.39
2022-10-07T13:01:50.715Z,23.42
2022-10-07T13:04:38.740Z,23.41
2022-10-07T13:07:40.253Z,23.35
2022-10-07T13:10:27.704Z,23.21
2022-10-07T13:13:01.483Z,23.31
2022-10-07T13:15:41.533Z,23.25
2022-10-07T13:18:18.755Z,23.14
2022-10-07T13:21:06.115Z,22.97
2022-10-07T13:23:36.440Z,22.91
2022-10-07T13:26:05.505Z,22.90
2022-10-07T13:28:40.429Z,23.01
2022-10-07T13:31:22.138Z,23.07
2022-10-07T13:33:52.469Z,23.11
2022-10-07T13:36:24.221Z,23.10
2022-10-07T13:38:55.277Z,23.17
2022-10-07T13:41:27.717Z,23.12
2022-10-07T13:44:00.991Z,23.09
2022-10-07T13:46:34.047Z,22.98
2022-10-07T13:49:04.759Z,22.79
2022-10-07T13:51:37.057Z,22.71
2022-10-07T13:54:09.038Z,22.75
2022-10-07T13:56:41.838Z,22.78
2022-10-07T13:59:19.040Z,22.76
2022-10-07T14:01:52.762Z,22.73
2022-10-07T14:04:25.739Z,22.70
2022-10-07T14:07:10.398Z,22.61
2022-10-07T14:09:46.147Z,22.52
2022-10-07T14:12:22.381Z,22.50
2022-10-07T14:14:54.678Z,22.55
2022-10-07T14:17:34.367Z,22.44
2022-10-07T14:20:06.174Z,22.55
2022-10-07T14:22:39.033Z,22.51
2022-10-07T14:25:18.058Z,22.46
2022-10-07T14:28:16.515Z,22.40
2022-10-07T14:30:57.145Z,22.26
2022-10-07T14:33:46.198Z,22.13
2022-10-07T14:36:17.378Z,22.05
2022-10-07T14:38:48.176Z,21.97
2022-10-07T14:41:19.051Z,21.87
2022-10-07T14:43:50.481Z,21.81
2022-10-07T14:46:21.951Z,21.76
2022-10-07T14:48:54.599Z,21.66
2022-10-07T14:51:27.302Z,21.49
2022-10-07T14:54:02.566Z,21.38
2022-10-07T14:56:35.244Z,21.28
2022-10-07T14:59:04.076Z,21.23
2022-10-07T15:01:32.801Z,21.15
2022-10-07T15:04:03.287Z,21.09
2022-10-07T15:06:32.080Z,21.04
2022-10-07T15:09:00.811Z,20.95
2022-10-07T15:11:29.409Z,20.87
2022-10-07T15:13:57.896Z,20.84
2022-10-07T15:16:29.266Z,20.78
2022-10-07T15:18:58.023Z,20.75
2022-10-07T15:21:29.263Z,20.69
2022-10-07T15:23:58.710Z,20.65
2022-10-07T15:26:27.392Z,20.61
2022-10-07T15:28:58.195Z,20.55
2022-10-07T15:31:29.404Z,20.50
2022-10-07T15:33:58.900Z,20.45
2022-10-07T15:36:32.516Z,20.39
2022-10-07T15:39:02.454Z,20.33
2022-10-07T15:41:36.604Z,20.30
2022-10-07T15:44:07.652Z,20.24
2022-10-07T15:46:36.883Z,20.18
2022-10-07T15:49:05.852Z,20.10
2022-10-07T15:51:36.790Z,20.05
2022-10-07T15:54:06.978Z,19.96
2022-10-07T15:56:35.775Z,19.81
2022-10-07T15:59:04.974Z,19.66
2022-10-07T16:01:33.756Z,19.49
2022-10-07T16:04:04.034Z,19.23
2022-10-07T16:06:36.350Z,19.05
2022-10-07T16:09:05.900Z,18.89
2022-10-07T16:11:35.934Z,18.66
2022-10-07T16:14:05.410Z,18.44
2022-10-07T16:16:34.300Z,18.23
2022-10-07T16:19:03.883Z,18.14
2022-10-07T16:21:33.452Z,18.04
2022-10-07T16:24:04.878Z,17.93
2022-10-07T16:26:35.947Z,17.84
2022-10-07T16:29:16.880Z,17.76
2022-10-07T16:31:47.134Z,17.63
2022-10-07T16:34:16.883Z,17.57
2022-10-07T16:36:47.940Z,17.46
2022-10-07T16:39:19.337Z,17.39
2022-10-07T16:41:49.057Z,17.25
2022-10-07T16:44:17.642Z,17.20
2022-10-07T16:46:46.324Z,17.14
2022-10-07T16:49:17.282Z,17.07
2022-10-07T16:51:46.691Z,16.97
2022-10-07T16:54:18.505Z,16.94
2022-10-07T16:56:48.406Z,16.92
2022-10-07T16:59:22.935Z,16.83
2022-10-07T17:01:54.747Z,16.76
2022-10-07T17:04:24.891Z,16.72
2022-10-07T17:06:54.062Z,16.62
2022-10-07T17:09:25.632Z,16.61
2022-10-07T17:11:54.762Z,16.58
2022-10-07T17:14:24.204Z,16.47
2022-10-07T17:16:56.854Z,16.47
2022-10-07T17:19:28.323Z,16.39
2022-10-07T17:21:59.777Z,16.35
2022-10-07T17:24:30.195Z,16.29
2022-10-07T17:26:58.897Z,16.28
2022-10-07T17:29:29.712Z,16.20
2022-10-07T17:31:58.351Z,16.13
2022-10-07T17:34:26.772Z,16.12
2022-10-07T17:36:55.460Z,16.05
2022-10-07T17:39:24.149Z,16.02
2022-10-07T17:41:54.423Z,15.99
2022-10-07T17:44:23.061Z,15.98
2022-10-07T17:46:51.488Z,15.98
2022-10-07T17:49:21.133Z,15.94
2022-10-07T17:51:49.663Z,15.95
2022-10-07T17:54:18.292Z,15.92
2022-10-07T17:56:48.063Z,15.87
2022-10-07T17:59:18.513Z,15.82
2022-10-07T18:01:48.051Z,15.78
2022-10-07T18:04:23.706Z,15.77
2022-10-07T18:06:53.369Z,15.73
2022-10-07T18:09:23.034Z,15.71
2022-10-07T18:12:01.427Z,15.63
2022-10-07T18:14:41.736Z,15.63
2022-10-07T18:17:12.459Z,15.62
2022-10-07T18:19:41.470Z,15.63
2022-10-07T18:22:10.228Z,15.66
2022-10-07T18:24:39.145Z,15.70
2022-10-07T18:27:07.822Z,15.73
2022-10-07T18:29:38.562Z,15.72
2022-10-07T18:32:08.538Z,15.71
2022-10-07T18:34:37.322Z,15.71
2022-10-07T18:37:06.033Z,15.69
2022-10-07T18:39:34.595Z,15.62
2022-10-07T18:42:04.635Z,15.57
2022-10-07T18:44:33.001Z,15.56
2022-10-07T18:47:03.133Z,15.54
2022-10-07T18:49:31.681Z,15.51
2022-10-07T18:52:00.302Z,15.48
2022-10-07T18:54:29.092Z,15.46
2022-10-07T18:56:57.635Z,15.39
2022-10-07T18:59:29.322Z,15.37
2022-10-07T19:01:58.051Z,15.31
2022-10-07T19:04:30.759Z,15.28
2022-10-07T19:06:59.422Z,15.29
2022-10-07T19:09:27.984Z,15.23
2022-10-07T19:11:56.550Z,15.06
2022-10-07T19:14:26.380Z,15.04
2022-10-07T19:16:55.082Z,15.06
2022-10-07T19:19:25.893Z,15.01
2022-10-07T19:21:57.950Z,14.89
2022-10-07T19:24:46.977Z,14.83
2022-10-07T19:27:15.643Z,14.76
2022-10-07T19:29:44.112Z,14.76
2022-10-07T19:32:14.465Z,14.75
2022-10-07T19:34:42.752Z,14.68
2022-10-07T19:37:12.775Z,14.59
2022-10-07T19:39:41.342Z,14.45
2022-10-07T19:42:09.896Z,14.39
2022-10-07T19:44:38.661Z,14.28
2022-10-07T19:47:07.180Z,14.17
2022-10-07T19:49:37.662Z,14.13
2022-10-07T19:52:06.401Z,14.07
2022-10-07T19:54:39.912Z,14.09
2022-10-07T19:57:08.463Z,14.08
2022-10-07T19:59:36.981Z,13.99
2022-10-07T20:02:06.586Z,13.93
2022-10-07T20:04:35.603Z,13.90
2022-10-07T20:07:04.325Z,13.89
2022-10-07T20:09:32.962Z,13.86
2022-10-07T20:12:05.024Z,13.92
2022-10-07T20:14:35.525Z,13.94
2022-10-07T20:17:04.087Z,13.89
2022-10-07T20:19:32.694Z,13.93
2022-10-07T20:22:02.237Z,13.92
2022-10-07T20:24:30.863Z,13.91
2022-10-07T20:26:59.404Z,13.88
2022-10-07T20:29:29.514Z,13.90
2022-10-07T20:31:58.160Z,13.90
2022-10-07T20:34:26.910Z,13.87
2022-10-07T20:36:56.353Z,13.87
2022-10-07T20:39:34.589Z,13.84
2022-10-07T20:42:13.511Z,13.78
2022-10-07T20:44:43.398Z,13.78
2022-10-07T20:47:12.224Z,13.75
2022-10-07T20:49:42.382Z,13.72
2022-10-07T20:52:13.315Z,13.70
2022-10-07T20:54:41.933Z,13.67
2022-10-07T20:57:13.781Z,13.61
2022-10-07T20:59:44.166Z,13.57
2022-10-07T21:02:14.853Z,13.58
2022-10-07T21:04:43.517Z,13.61
2022-10-07T21:07:12.171Z,13.60
2022-10-07T21:09:40.834Z,13.61
2022-10-07T21:12:11.884Z,13.55
2022-10-07T21:14:42.485Z,13.41
2022-10-07T21:17:13.223Z,13.34
2022-10-07T21:19:41.993Z,13.39
2022-10-07T21:22:10.874Z,13.36
2022-10-07T21:24:39.454Z,13.37
2022-10-07T21:27:08.902Z,13.31
2022-10-07T21:29:41.083Z,13.30
2022-10-07T21:32:10.995Z,13.20
2022-10-07T21:34:41.002Z,13.23
2022-10-07T21:37:09.573Z,13.16
2022-10-07T21:39:38.401Z,13.01
2022-10-07T21:42:07.154Z,12.97
2022-10-07T21:44:35.766Z,12.97
2022-10-07T21:47:05.421Z,12.89
2022-10-07T21:49:34.138Z,12.88
2022-10-07T21:52:04.145Z,12.84
2022-10-07T21:54:32.784Z,12.82
2022-10-07T21:57:01.782Z,12.72
2022-10-07T21:59:33.863Z,12.71
2022-10-07T22:02:02.950Z,12.73
2022-10-07T22:04:31.706Z,12.78
2022-10-07T22:07:11.307Z,12.76
2022-10-07T22:09:41.329Z,12.75
2022-10-07T22:12:09.842Z,12.67
2022-10-07T22:14:39.752Z,12.63
2022-10-07T22:17:09.406Z,12.60
2022-10-07T22:19:38.012Z,12.59
2022-10-07T22:22:07.076Z,12.58
2022-10-07T22:24:35.881Z,12.60
2022-10-07T22:27:06.055Z,12.41
2022-10-07T22:29:34.606Z,12.60
2022-10-07T22:32:03.122Z,12.48
2022-10-07T22:34:40.713Z,12.52
2022-10-07T22:37:09.326Z,12.55
2022-10-07T22:39:37.853Z,12.59
2022-10-07T22:42:08.047Z,12.57
2022-10-07T22:44:36.665Z,12.58
2022-10-07T22:47:05.343Z,12.59
2022-10-07T22:49:34.013Z,12.62
2022-10-07T22:52:02.643Z,12.66
2022-10-07T22:54:31.324Z,12.70
2022-10-07T22:57:00.059Z,12.69
2022-10-07T22:59:30.154Z,12.68
2022-10-07T23:01:58.821Z,12.63
2022-10-07T23:04:27.515Z,12.63
2022-10-07T23:06:56.144Z,12.58
2022-10-07T23:09:24.774Z,12.57
2022-10-07T23:11:53.425Z,12.59
2022-10-07T23:14:22.016Z,12.60
2022-10-07T23:16:52.416Z,12.60
2022-10-07T23:19:21.254Z,12.57
2022-10-07T23:21:49.945Z,12.56
2022-10-07T23:24:18.474Z,12.54
2022-10-07T23:26:46.919Z,12.56
2022-10-07T23:29:15.646Z,12.55
2022-10-07T23:31:45.088Z,12.56
2022-10-07T23:34:15.685Z,12.55
2022-10-07T23:36:44.231Z,12.56
2022-10-07T23:39:13.933Z,12.56
2022-10-07T23:41:42.332Z,12.56
2022-10-07T23:44:10.895Z,12.54
2022-10-07T23:46:39.869Z,12.51
2022-10-07T23:49:08.426Z,12.48
2022-10-07T23:51:38.533Z,12.46
2022-10-07T23:54:07.253Z,12.40
2022-10-07T23:56:35.874Z,12.41
2022-10-07T23:59:04.531Z,12.41
